sensor_id;sensor_type;location;lat;lon;timestamp;temperature;humidity
43338;DHT22;28933;52.492;13.434;2023-02-01T00:01:14;6.50;99.90
43338;DHT22;28933;52.492;13.434;2023-02-01T00:03:40;6.50;99.90
43338;DHT22;28933;52.492;13.434;2023-02-01T00:06:06;6.60;99.90
43338;DHT22;28933;52.492;13.434;2023-02-01T00:08:31;6.60;99.90
43338;DHT22;28933;52.492;13.434;2023-02-01T00:11:01;6.60;99.90
43338;DHT22;28933;52.492;13.434;2023-02-01T00:13:29;6.60;99.90
43338;DHT22;28933;52.492;13.434;2023-02-01T00:16:01;6.70;99.90
43338;DHT22;28933;52.492;13.434;2023-02-01T00:18:27;6.60;99.90
43338;DHT22;28933;52.492;13.434;2023-02-01T00:20:52;6.70;99.90
43338;DHT22;28933;52.492;13.434;2023-02-01T00:23:18;6.70;99.90
43338;DHT22;28933;52.492;13.434;2023-02-01T00:25:44;6.70;99.90
43338;DHT22;28933;52.492;13.434;2023-02-01T00:28:09;6.70;99.90
43338;DHT22;28933;52.492;13.434;2023-02-01T00:30:35;6.70;99.90
43338;DHT22;28933;52.492;13.434;2023-02-01T00:33:00;6.70;99.90
43338;DHT22;28933;52.492;13.434;2023-02-01T00:35:26;6.70;99.90
43338;DHT22;28933;52.492;13.434;2023-02-01T00:37:51;6.70;99.90
43338;DHT22;28933;52.492;13.434;2023-02-01T00:40:17;6.70;99.90
43338;DHT22;28933;52.492;13.434;2023-02-01T00:42:43;6.60;99.90
43338;DHT22;28933;52.492;13.434;2023-02-01T00:45:09;6.60;99.90
43338;DHT22;28933;52.492;13.434;2023-02-01T00:47:34;6.60;99.90
43338;DHT22;28933;52.492;13.434;2023-02-01T00:50:00;6.60;99.90
43338;DHT22;28933;52.492;13.434;2023-02-01T00:52:26;6.60;99.90
43338;DHT22;28933;52.492;13.434;2023-02-01T00:54:51;6.50;99.90
43338;DHT22;28933;52.492;13.434;2023-02-01T00:57:17;6.50;99.90
43338;DHT22;28933;52.492;13.434;2023-02-01T00:59:43;6.50;99.90
43338;DHT22;28933;52.492;13.434;2023-02-01T01:02:09;6.50;99.90
43338;DHT22;28933;52.492;13.434;2023-02-01T01:04:36;6.50;99.90
43338;DHT22;28933;52.492;13.434;2023-02-01T01:07:01;6.50;99.90
43338;DHT22;28933;52.492;13.434;2023-02-01T01:09:27;6.50;99.90
43338;DHT22;28933;52.492;13.434;2023-02-01T01:11:52;6.50;99.90
43338;DHT22;28933;52.492;13.434;2023-02-01T01:14:18;6.50;99.90
43338;DHT22;28933;52.492;13.434;2023-02-01T01:16:44;6.50;99.90
43338;DHT22;28933;52.492;13.434;2023-02-01T01:19:10;6.40;99.90
43338;DHT22;28933;52.492;13.434;2023-02-01T01:21:35;6.40;99.90
43338;DHT22;28933;52.492;13.434;2023-02-01T01:24:01;6.40;99.90
43338;DHT22;28933;52.492;13.434;2023-02-01T01:26:28;6.50;99.90
43338;DHT22;28933;52.492;13.434;2023-02-01T01:28:55;6.50;99.90
43338;DHT22;28933;52.492;13.434;2023-02-01T01:31:22;6.40;99.90
43338;DHT22;28933;52.492;13.434;2023-02-01T01:33:50;6.40;99.90
43338;DHT22;28933;52.492;13.434;2023-02-01T01:36:16;6.40;99.90
43338;DHT22;28933;52.492;13.434;2023-02-01T01:38:42;6.40;99.90
43338;DHT22;28933;52.492;13.434;2023-02-01T01:41:09;6.40;99.90
43338;DHT22;28933;52.492;13.434;2023-02-01T01:51:33;6.40;99.90
43338;DHT22;28933;52.492;13.434;2023-02-01T01:54:23;6.40;99.90
43338;DHT22;28933;52.492;13.434;2023-02-01T01:56:55;6.40;99.90
43338;DHT22;28933;52.492;13.434;2023-02-01T01:59:24;6.40;99.90
43338;DHT22;28933;52.492;13.434;2023-02-01T02:01:51;6.30;99.90
43338;DHT22;28933;52.492;13.434;2023-02-01T02:04:17;6.40;99.90
43338;DHT22;28933;52.492;13.434;2023-02-01T02:06:56;6.40;99.90
43338;DHT22;28933;52.492;13.434;2023-02-01T02:09:23;6.40;99.90
43338;DHT22;28933;52.492;13.434;2023-02-01T02:11:49;6.50;99.90
43338;DHT22;28933;52.492;13.434;2023-02-01T02:14:17;6.50;99.90
43338;DHT22;28933;52.492;13.434;2023-02-01T02:17:16;6.50;99.90
43338;DHT22;28933;52.492;13.434;2023-02-01T02:20:18;6.50;99.90
43338;DHT22;28933;52.492;13.434;2023-02-01T02:23:03;6.50;99.90
43338;DHT22;28933;52.492;13.434;2023-02-01T02:34:21;6.50;99.90
43338;DHT22;28933;52.492;13.434;2023-02-01T02:43:05;6.50;99.90
43338;DHT22;28933;52.492;13.434;2023-02-01T02:49:23;6.60;99.90
43338;DHT22;28933;52.492;13.434;2023-02-01T02:52:03;6.60;99.90
43338;DHT22;28933;52.492;13.434;2023-02-01T02:54:50;6.60;99.90
43338;DHT22;28933;52.492;13.434;2023-02-01T03:00:16;6.60;99.90
43338;DHT22;28933;52.492;13.434;2023-02-01T03:03:02;6.70;99.90
43338;DHT22;28933;52.492;13.434;2023-02-01T03:05:48;6.70;99.90
43338;DHT22;28933;52.492;13.434;2023-02-01T03:08:19;6.70;99.90
43338;DHT22;28933;52.492;13.434;2023-02-01T03:15:44;6.80;99.90
43338;DHT22;28933;52.492;13.434;2023-02-01T03:18:19;6.80;99.90
43338;DHT22;28933;52.492;13.434;2023-02-01T03:20:49;6.80;99.90
43338;DHT22;28933;52.492;13.434;2023-02-01T03:23:17;6.80;99.90
43338;DHT22;28933;52.492;13.434;2023-02-01T03:25:47;6.80;99.90
43338;DHT22;28933;52.492;13.434;2023-02-01T03:28:15;6.90;99.90
43338;DHT22;28933;52.492;13.434;2023-02-01T03:30:44;6.80;99.90
43338;DHT22;28933;52.492;13.434;2023-02-01T03:33:19;6.80;99.90
43338;DHT22;28933;52.492;13.434;2023-02-01T03:36:05;6.90;99.90
43338;DHT22;28933;52.492;13.434;2023-02-01T03:38:48;6.90;99.90
43338;DHT22;28933;52.492;13.434;2023-02-01T03:46:42;6.90;99.90
43338;DHT22;28933;52.492;13.434;2023-02-01T03:49:13;6.90;99.90
43338;DHT22;28933;52.492;13.434;2023-02-01T03:51:40;6.90;99.90
43338;DHT22;28933;52.492;13.434;2023-02-01T03:54:09;6.90;99.90
43338;DHT22;28933;52.492;13.434;2023-02-01T03:56:38;6.90;99.90
43338;DHT22;28933;52.492;13.434;2023-02-01T03:59:05;6.90;99.90
43338;DHT22;28933;52.492;13.434;2023-02-01T04:01:31;6.90;99.90
43338;DHT22;28933;52.492;13.434;2023-02-01T04:03:57;6.90;99.90
43338;DHT22;28933;52.492;13.434;2023-02-01T04:06:24;7.00;99.90
43338;DHT22;28933;52.492;13.434;2023-02-01T04:08:51;6.90;99.80
43338;DHT22;28933;52.492;13.434;2023-02-01T04:11:17;7.00;99.80
43338;DHT22;28933;52.492;13.434;2023-02-01T04:13:43;7.00;99.80
43338;DHT22;28933;52.492;13.434;2023-02-01T04:16:09;7.00;99.80
43338;DHT22;28933;52.492;13.434;2023-02-01T04:18:35;7.00;99.70
43338;DHT22;28933;52.492;13.434;2023-02-01T04:21:01;7.00;99.80
43338;DHT22;28933;52.492;13.434;2023-02-01T04:23:28;7.10;99.80
43338;DHT22;28933;52.492;13.434;2023-02-01T04:25:53;7.10;99.80
43338;DHT22;28933;52.492;13.434;2023-02-01T04:28:20;7.10;99.70
43338;DHT22;28933;52.492;13.434;2023-02-01T04:30:46;7.10;99.70
43338;DHT22;28933;52.492;13.434;2023-02-01T04:33:11;7.20;99.70
43338;DHT22;28933;52.492;13.434;2023-02-01T04:35:39;7.20;99.60
43338;DHT22;28933;52.492;13.434;2023-02-01T04:38:05;7.20;99.70
43338;DHT22;28933;52.492;13.434;2023-02-01T04:40:32;7.20;99.60
43338;DHT22;28933;52.492;13.434;2023-02-01T04:42:58;7.30;99.60
43338;DHT22;28933;52.492;13.434;2023-02-01T04:45:23;7.30;99.60
43338;DHT22;28933;52.492;13.434;2023-02-01T04:47:49;7.30;99.50
43338;DHT22;28933;52.492;13.434;2023-02-01T04:50:15;7.40;99.50
43338;DHT22;28933;52.492;13.434;2023-02-01T04:52:41;7.40;99.50
43338;DHT22;28933;52.492;13.434;2023-02-01T04:55:07;7.40;99.20
43338;DHT22;28933;52.492;13.434;2023-02-01T04:57:32;7.40;99.30
43338;DHT22;28933;52.492;13.434;2023-02-01T04:59:58;7.50;99.30
43338;DHT22;28933;52.492;13.434;2023-02-01T05:02:24;7.40;99.30
43338;DHT22;28933;52.492;13.434;2023-02-01T05:04:49;7.50;99.30
43338;DHT22;28933;52.492;13.434;2023-02-01T05:07:16;7.50;99.30
43338;DHT22;28933;52.492;13.434;2023-02-01T05:09:41;7.50;99.30
43338;DHT22;28933;52.492;13.434;2023-02-01T05:12:08;7.50;99.20
43338;DHT22;28933;52.492;13.434;2023-02-01T05:14:53;7.60;99.20
43338;DHT22;28933;52.492;13.434;2023-02-01T05:17:18;7.60;99.10
43338;DHT22;28933;52.492;13.434;2023-02-01T05:19:44;7.60;99.10
43338;DHT22;28933;52.492;13.434;2023-02-01T05:22:10;7.60;99.20
43338;DHT22;28933;52.492;13.434;2023-02-01T05:24:35;7.70;99.10
43338;DHT22;28933;52.492;13.434;2023-02-01T05:27:01;7.70;98.90
43338;DHT22;28933;52.492;13.434;2023-02-01T05:29:26;7.70;99.00
43338;DHT22;28933;52.492;13.434;2023-02-01T05:31:52;7.60;98.90
43338;DHT22;28933;52.492;13.434;2023-02-01T05:34:18;7.70;98.90
43338;DHT22;28933;52.492;13.434;2023-02-01T05:36:43;7.70;98.90
43338;DHT22;28933;52.492;13.434;2023-02-01T05:39:09;7.70;98.80
43338;DHT22;28933;52.492;13.434;2023-02-01T05:41:35;7.70;98.80
43338;DHT22;28933;52.492;13.434;2023-02-01T05:44:01;7.80;99.00
43338;DHT22;28933;52.492;13.434;2023-02-01T05:46:28;7.80;98.80
43338;DHT22;28933;52.492;13.434;2023-02-01T05:48:53;7.80;98.60
43338;DHT22;28933;52.492;13.434;2023-02-01T05:51:19;7.70;98.70
43338;DHT22;28933;52.492;13.434;2023-02-01T05:53:44;7.80;98.60
43338;DHT22;28933;52.492;13.434;2023-02-01T05:56:10;7.70;98.40
43338;DHT22;28933;52.492;13.434;2023-02-01T05:58:36;7.70;98.50
43338;DHT22;28933;52.492;13.434;2023-02-01T06:01:02;7.70;98.60
43338;DHT22;28933;52.492;13.434;2023-02-01T06:03:28;7.80;98.60
43338;DHT22;28933;52.492;13.434;2023-02-01T06:05:54;7.80;98.60
43338;DHT22;28933;52.492;13.434;2023-02-01T06:08:20;7.80;98.60
43338;DHT22;28933;52.492;13.434;2023-02-01T06:10:45;7.80;98.60
43338;DHT22;28933;52.492;13.434;2023-02-01T06:13:11;7.80;98.60
43338;DHT22;28933;52.492;13.434;2023-02-01T06:15:36;7.90;98.60
43338;DHT22;28933;52.492;13.434;2023-02-01T06:18:07;7.90;98.80
43338;DHT22;28933;52.492;13.434;2023-02-01T06:20:33;7.90;98.60
43338;DHT22;28933;52.492;13.434;2023-02-01T06:22:58;7.90;98.60
43338;DHT22;28933;52.492;13.434;2023-02-01T06:25:24;7.90;98.60
43338;DHT22;28933;52.492;13.434;2023-02-01T06:27:50;7.80;98.60
43338;DHT22;28933;52.492;13.434;2023-02-01T06:30:15;7.80;98.70
43338;DHT22;28933;52.492;13.434;2023-02-01T06:32:41;7.80;98.70
43338;DHT22;28933;52.492;13.434;2023-02-01T06:35:10;7.80;98.90
43338;DHT22;28933;52.492;13.434;2023-02-01T06:37:42;7.80;98.90
43338;DHT22;28933;52.492;13.434;2023-02-01T06:40:08;7.80;98.80
43338;DHT22;28933;52.492;13.434;2023-02-01T06:42:34;7.70;98.90
43338;DHT22;28933;52.492;13.434;2023-02-01T06:45:00;7.70;98.90
43338;DHT22;28933;52.492;13.434;2023-02-01T06:47:25;7.70;98.90
43338;DHT22;28933;52.492;13.434;2023-02-01T06:49:51;7.70;99.00
43338;DHT22;28933;52.492;13.434;2023-02-01T06:52:17;7.70;99.00
43338;DHT22;28933;52.492;13.434;2023-02-01T06:54:42;7.70;99.00
43338;DHT22;28933;52.492;13.434;2023-02-01T06:57:08;7.70;99.10
43338;DHT22;28933;52.492;13.434;2023-02-01T06:59:33;7.70;99.10
43338;DHT22;28933;52.492;13.434;2023-02-01T07:01:59;7.70;99.10
43338;DHT22;28933;52.492;13.434;2023-02-01T07:04:24;7.70;99.10
43338;DHT22;28933;52.492;13.434;2023-02-01T07:06:50;7.70;99.30
43338;DHT22;28933;52.492;13.434;2023-02-01T07:09:16;7.80;99.10
43338;DHT22;28933;52.492;13.434;2023-02-01T07:11:41;7.80;99.00
43338;DHT22;28933;52.492;13.434;2023-02-01T07:14:09;7.80;99.00
43338;DHT22;28933;52.492;13.434;2023-02-01T07:16:35;7.80;98.90
43338;DHT22;28933;52.492;13.434;2023-02-01T07:19:01;7.80;98.90
43338;DHT22;28933;52.492;13.434;2023-02-01T07:21:27;7.80;98.90
43338;DHT22;28933;52.492;13.434;2023-02-01T07:23:55;7.80;98.80
43338;DHT22;28933;52.492;13.434;2023-02-01T07:26:21;7.80;98.80
43338;DHT22;28933;52.492;13.434;2023-02-01T07:28:47;7.80;98.80
43338;DHT22;28933;52.492;13.434;2023-02-01T07:31:15;7.80;98.80
43338;DHT22;28933;52.492;13.434;2023-02-01T07:33:43;7.70;98.80
43338;DHT22;28933;52.492;13.434;2023-02-01T07:36:12;7.70;98.80
43338;DHT22;28933;52.492;13.434;2023-02-01T07:38:38;7.80;98.90
43338;DHT22;28933;52.492;13.434;2023-02-01T07:41:04;7.80;98.90
43338;DHT22;28933;52.492;13.434;2023-02-01T07:43:31;7.80;98.90
43338;DHT22;28933;52.492;13.434;2023-02-01T07:45:58;7.80;98.90
43338;DHT22;28933;52.492;13.434;2023-02-01T07:48:25;7.80;98.90
43338;DHT22;28933;52.492;13.434;2023-02-01T07:50:59;7.80;99.00
43338;DHT22;28933;52.492;13.434;2023-02-01T07:53:25;7.70;99.10
43338;DHT22;28933;52.492;13.434;2023-02-01T07:55:51;7.80;99.30
43338;DHT22;28933;52.492;13.434;2023-02-01T07:58:17;7.70;99.20
43338;DHT22;28933;52.492;13.434;2023-02-01T08:00:43;7.70;99.20
43338;DHT22;28933;52.492;13.434;2023-02-01T08:03:27;7.70;99.30
43338;DHT22;28933;52.492;13.434;2023-02-01T08:05:54;7.60;99.40
43338;DHT22;28933;52.492;13.434;2023-02-01T08:08:21;7.60;99.50
43338;DHT22;28933;52.492;13.434;2023-02-01T08:10:46;7.50;99.60
43338;DHT22;28933;52.492;13.434;2023-02-01T08:13:12;7.50;99.60
43338;DHT22;28933;52.492;13.434;2023-02-01T08:15:38;7.50;99.80
43338;DHT22;28933;52.492;13.434;2023-02-01T08:18:03;7.50;99.80
43338;DHT22;28933;52.492;13.434;2023-02-01T08:20:29;7.40;99.80
43338;DHT22;28933;52.492;13.434;2023-02-01T08:22:56;7.40;99.90
43338;DHT22;28933;52.492;13.434;2023-02-01T08:25:23;7.40;99.90
43338;DHT22;28933;52.492;13.434;2023-02-01T08:27:48;7.30;99.90
43338;DHT22;28933;52.492;13.434;2023-02-01T08:30:15;7.20;99.90
43338;DHT22;28933;52.492;13.434;2023-02-01T08:32:40;7.20;99.90
43338;DHT22;28933;52.492;13.434;2023-02-01T08:35:06;7.10;99.90
43338;DHT22;28933;52.492;13.434;2023-02-01T08:37:32;7.20;99.90
43338;DHT22;28933;52.492;13.434;2023-02-01T08:39:58;7.20;99.90
43338;DHT22;28933;52.492;13.434;2023-02-01T08:42:23;7.10;99.90
43338;DHT22;28933;52.492;13.434;2023-02-01T08:45:08;7.10;99.90
43338;DHT22;28933;52.492;13.434;2023-02-01T08:47:35;7.10;99.90
43338;DHT22;28933;52.492;13.434;2023-02-01T08:50:00;7.00;99.90
43338;DHT22;28933;52.492;13.434;2023-02-01T08:52:26;7.00;99.90
43338;DHT22;28933;52.492;13.434;2023-02-01T08:54:52;7.00;99.90
43338;DHT22;28933;52.492;13.434;2023-02-01T08:57:18;7.00;99.90
43338;DHT22;28933;52.492;13.434;2023-02-01T08:59:43;7.00;99.90
43338;DHT22;28933;52.492;13.434;2023-02-01T09:02:13;6.90;99.90
43338;DHT22;28933;52.492;13.434;2023-02-01T09:04:39;6.90;99.90
43338;DHT22;28933;52.492;13.434;2023-02-01T09:07:04;6.90;99.90
43338;DHT22;28933;52.492;13.434;2023-02-01T09:09:30;6.90;99.90
43338;DHT22;28933;52.492;13.434;2023-02-01T09:11:56;6.90;99.90
43338;DHT22;28933;52.492;13.434;2023-02-01T09:14:21;6.80;99.90
43338;DHT22;28933;52.492;13.434;2023-02-01T09:16:47;6.80;99.90
43338;DHT22;28933;52.492;13.434;2023-02-01T09:19:12;6.80;99.90
43338;DHT22;28933;52.492;13.434;2023-02-01T09:21:38;6.70;99.90
43338;DHT22;28933;52.492;13.434;2023-02-01T09:24:04;6.80;99.90
43338;DHT22;28933;52.492;13.434;2023-02-01T09:26:29;6.70;99.90
43338;DHT22;28933;52.492;13.434;2023-02-01T09:28:55;6.70;99.90
43338;DHT22;28933;52.492;13.434;2023-02-01T09:31:21;6.80;99.90
43338;DHT22;28933;52.492;13.434;2023-02-01T09:33:46;6.80;99.90
43338;DHT22;28933;52.492;13.434;2023-02-01T09:36:12;6.80;99.90
43338;DHT22;28933;52.492;13.434;2023-02-01T09:38:37;6.80;99.90
43338;DHT22;28933;52.492;13.434;2023-02-01T09:41:16;6.80;99.90
43338;DHT22;28933;52.492;13.434;2023-02-01T09:46:33;6.90;99.90
43338;DHT22;28933;52.492;13.434;2023-02-01T09:49:08;6.90;99.90
43338;DHT22;28933;52.492;13.434;2023-02-01T09:51:41;6.90;99.90
43338;DHT22;28933;52.492;13.434;2023-02-01T09:54:26;6.90;99.90
43338;DHT22;28933;52.492;13.434;2023-02-01T09:59:43;6.90;99.90
43338;DHT22;28933;52.492;13.434;2023-02-01T10:02:23;6.90;99.90
43338;DHT22;28933;52.492;13.434;2023-02-01T10:04:50;6.90;99.90
43338;DHT22;28933;52.492;13.434;2023-02-01T10:18:41;6.90;99.90
43338;DHT22;28933;52.492;13.434;2023-02-01T10:21:22;6.90;99.90
43338;DHT22;28933;52.492;13.434;2023-02-01T10:26:45;6.90;99.90
43338;DHT22;28933;52.492;13.434;2023-02-01T10:29:20;6.90;99.90
43338;DHT22;28933;52.492;13.434;2023-02-01T10:31:48;6.90;99.90
43338;DHT22;28933;52.492;13.434;2023-02-01T10:34:32;6.90;99.90
43338;DHT22;28933;52.492;13.434;2023-02-01T10:37:28;6.90;99.90
43338;DHT22;28933;52.492;13.434;2023-02-01T10:39:55;7.00;99.90
43338;DHT22;28933;52.492;13.434;2023-02-01T10:42:26;7.00;99.90
43338;DHT22;28933;52.492;13.434;2023-02-01T10:44:54;7.00;99.90
43338;DHT22;28933;52.492;13.434;2023-02-01T10:47:21;7.10;99.90
43338;DHT22;28933;52.492;13.434;2023-02-01T10:50:15;7.10;99.90
43338;DHT22;28933;52.492;13.434;2023-02-01T10:52:49;7.10;99.90
43338;DHT22;28933;52.492;13.434;2023-02-01T10:58:05;7.10;99.90
43338;DHT22;28933;52.492;13.434;2023-02-01T11:01:03;7.10;99.90
43338;DHT22;28933;52.492;13.434;2023-02-01T11:05:59;7.10;99.90
43338;DHT22;28933;52.492;13.434;2023-02-01T11:08:25;7.10;99.90
43338;DHT22;28933;52.492;13.434;2023-02-01T11:11:02;7.10;99.90
43338;DHT22;28933;52.492;13.434;2023-02-01T11:13:33;7.10;99.90
43338;DHT22;28933;52.492;13.434;2023-02-01T11:16:03;7.20;99.90
43338;DHT22;28933;52.492;13.434;2023-02-01T11:18:33;7.20;99.90
43338;DHT22;28933;52.492;13.434;2023-02-01T11:21:00;7.30;99.90
43338;DHT22;28933;52.492;13.434;2023-02-01T11:23:28;7.30;99.90
43338;DHT22;28933;52.492;13.434;2023-02-01T11:26:00;7.40;99.90
43338;DHT22;28933;52.492;13.434;2023-02-01T11:28:32;7.40;99.90
43338;DHT22;28933;52.492;13.434;2023-02-01T11:31:03;7.50;99.90
43338;DHT22;28933;52.492;13.434;2023-02-01T11:33:33;7.50;99.90
43338;DHT22;28933;52.492;13.434;2023-02-01T11:36:08;7.60;99.90
43338;DHT22;28933;52.492;13.434;2023-02-01T11:38:35;7.60;99.90
43338;DHT22;28933;52.492;13.434;2023-02-01T11:41:17;7.60;99.90
43338;DHT22;28933;52.492;13.434;2023-02-01T11:46:24;7.80;99.90
43338;DHT22;28933;52.492;13.434;2023-02-01T11:48:53;7.80;99.90
43338;DHT22;28933;52.492;13.434;2023-02-01T12:01:43;8.10;99.90
43338;DHT22;28933;52.492;13.434;2023-02-01T12:04:54;8.30;99.90
43338;DHT22;28933;52.492;13.434;2023-02-01T12:07:19;8.30;99.90
43338;DHT22;28933;52.492;13.434;2023-02-01T12:12:25;8.50;99.90
43338;DHT22;28933;52.492;13.434;2023-02-01T12:15:06;8.60;99.90
43338;DHT22;28933;52.492;13.434;2023-02-01T12:28:54;8.70;99.90
43338;DHT22;28933;52.492;13.434;2023-02-01T12:31:43;8.80;99.90
43338;DHT22;28933;52.492;13.434;2023-02-01T12:34:38;8.80;99.90
43338;DHT22;28933;52.492;13.434;2023-02-01T12:42:29;8.70;99.90
43338;DHT22;28933;52.492;13.434;2023-02-01T12:48:21;8.70;99.90
43338;DHT22;28933;52.492;13.434;2023-02-01T12:50:57;8.70;99.90
43338;DHT22;28933;52.492;13.434;2023-02-01T12:56:05;8.70;99.90
43338;DHT22;28933;52.492;13.434;2023-02-01T12:58:38;8.70;99.90
43338;DHT22;28933;52.492;13.434;2023-02-01T13:01:18;8.80;99.90
43338;DHT22;28933;52.492;13.434;2023-02-01T13:04:15;8.80;99.90
43338;DHT22;28933;52.492;13.434;2023-02-01T13:06:51;8.80;99.80
43338;DHT22;28933;52.492;13.434;2023-02-01T13:12:28;8.90;99.70
43338;DHT22;28933;52.492;13.434;2023-02-01T13:15:00;8.90;99.60
43338;DHT22;28933;52.492;13.434;2023-02-01T13:17:31;8.90;99.50
43338;DHT22;28933;52.492;13.434;2023-02-01T13:22:59;9.00;99.40
43338;DHT22;28933;52.492;13.434;2023-02-01T13:25:37;9.00;99.40
43338;DHT22;28933;52.492;13.434;2023-02-01T13:28:11;9.00;99.30
43338;DHT22;28933;52.492;13.434;2023-02-01T13:34:03;8.80;99.10
43338;DHT22;28933;52.492;13.434;2023-02-01T13:36:06;8.90;99.20
43338;DHT22;28933;52.492;13.434;2023-02-01T13:39:03;8.80;99.00
43338;DHT22;28933;52.492;13.434;2023-02-01T13:41:39;8.80;99.00
43338;DHT22;28933;52.492;13.434;2023-02-01T13:44:22;8.80;99.00
43338;DHT22;28933;52.492;13.434;2023-02-01T13:46:51;8.80;99.00
43338;DHT22;28933;52.492;13.434;2023-02-01T13:49:33;8.90;99.00
43338;DHT22;28933;52.492;13.434;2023-02-01T13:52:02;8.90;98.90
43338;DHT22;28933;52.492;13.434;2023-02-01T13:54:33;8.90;98.80
43338;DHT22;28933;52.492;13.434;2023-02-01T13:57:01;8.80;98.80
43338;DHT22;28933;52.492;13.434;2023-02-01T14:10:51;8.90;98.70
43338;DHT22;28933;52.492;13.434;2023-02-01T14:13:35;8.90;98.70
43338;DHT22;28933;52.492;13.434;2023-02-01T14:26:44;8.80;99.10
43338;DHT22;28933;52.492;13.434;2023-02-01T14:32:23;8.80;99.40
43338;DHT22;28933;52.492;13.434;2023-02-01T14:44:44;8.80;99.50
43338;DHT22;28933;52.492;13.434;2023-02-01T14:47:26;8.80;99.50
43338;DHT22;28933;52.492;13.434;2023-02-01T14:49:56;8.80;99.80
43338;DHT22;28933;52.492;13.434;2023-02-01T14:52:33;8.80;99.60
43338;DHT22;28933;52.492;13.434;2023-02-01T14:55:04;8.80;99.50
43338;DHT22;28933;52.492;13.434;2023-02-01T14:57:33;8.80;99.50
43338;DHT22;28933;52.492;13.434;2023-02-01T15:00:10;8.80;99.50
43338;DHT22;28933;52.492;13.434;2023-02-01T15:02:40;8.80;99.40
43338;DHT22;28933;52.492;13.434;2023-02-01T15:05:23;8.80;99.40
43338;DHT22;28933;52.492;13.434;2023-02-01T15:07:51;8.80;99.30
43338;DHT22;28933;52.492;13.434;2023-02-01T15:10:18;8.80;99.30
43338;DHT22;28933;52.492;13.434;2023-02-01T15:12:45;8.80;99.20
43338;DHT22;28933;52.492;13.434;2023-02-01T15:15:22;8.80;99.00
43338;DHT22;28933;52.492;13.434;2023-02-01T15:17:57;8.70;98.90
43338;DHT22;28933;52.492;13.434;2023-02-01T15:20:25;8.70;99.00
43338;DHT22;28933;52.492;13.434;2023-02-01T15:23:00;8.60;99.00
43338;DHT22;28933;52.492;13.434;2023-02-01T15:25:29;8.50;99.00
43338;DHT22;28933;52.492;13.434;2023-02-01T15:27:56;8.40;99.10
43338;DHT22;28933;52.492;13.434;2023-02-01T15:30:25;8.30;99.20
43338;DHT22;28933;52.492;13.434;2023-02-01T15:32:52;8.30;99.20
43338;DHT22;28933;52.492;13.434;2023-02-01T15:35:54;8.20;99.30
43338;DHT22;28933;52.492;13.434;2023-02-01T15:43:42;8.00;99.50
43338;DHT22;28933;52.492;13.434;2023-02-01T15:46:18;7.90;99.60
43338;DHT22;28933;52.492;13.434;2023-02-01T15:48:49;7.80;99.80
43338;DHT22;28933;52.492;13.434;2023-02-01T15:51:19;7.70;99.80
43338;DHT22;28933;52.492;13.434;2023-02-01T15:53:56;7.60;99.80
43338;DHT22;28933;52.492;13.434;2023-02-01T15:56:26;7.40;99.90
43338;DHT22;28933;52.492;13.434;2023-02-01T15:59:02;7.40;99.90
43338;DHT22;28933;52.492;13.434;2023-02-01T16:01:30;7.30;99.90
43338;DHT22;28933;52.492;13.434;2023-02-01T16:06:34;7.10;99.90
43338;DHT22;28933;52.492;13.434;2023-02-01T16:09:21;6.90;99.90
43338;DHT22;28933;52.492;13.434;2023-02-01T16:14:15;6.60;99.90
43338;DHT22;28933;52.492;13.434;2023-02-01T16:16:44;6.40;99.90
43338;DHT22;28933;52.492;13.434;2023-02-01T16:19:09;6.30;99.90
43338;DHT22;28933;52.492;13.434;2023-02-01T16:21:35;6.30;99.90
43338;DHT22;28933;52.492;13.434;2023-02-01T16:24:01;6.20;99.90
43338;DHT22;28933;52.492;13.434;2023-02-01T16:26:30;6.20;99.90
43338;DHT22;28933;52.492;13.434;2023-02-01T16:28:57;6.20;99.90
43338;DHT22;28933;52.492;13.434;2023-02-01T16:31:27;6.20;99.90
43338;DHT22;28933;52.492;13.434;2023-02-01T16:33:53;6.20;99.90
43338;DHT22;28933;52.492;13.434;2023-02-01T16:36:19;6.10;99.90
43338;DHT22;28933;52.492;13.434;2023-02-01T16:38:45;6.20;99.90
43338;DHT22;28933;52.492;13.434;2023-02-01T16:41:17;6.10;99.90
43338;DHT22;28933;52.492;13.434;2023-02-01T16:43:43;6.10;99.90
43338;DHT22;28933;52.492;13.434;2023-02-01T16:46:15;6.00;99.90
43338;DHT22;28933;52.492;13.434;2023-02-01T16:48:44;5.90;99.90
43338;DHT22;28933;52.492;13.434;2023-02-01T16:51:14;6.00;99.90
43338;DHT22;28933;52.492;13.434;2023-02-01T16:53:41;5.90;99.90
43338;DHT22;28933;52.492;13.434;2023-02-01T16:56:17;5.90;99.90
43338;DHT22;28933;52.492;13.434;2023-02-01T16:58:44;5.90;99.90
43338;DHT22;28933;52.492;13.434;2023-02-01T17:01:11;6.00;99.90
43338;DHT22;28933;52.492;13.434;2023-02-01T17:03:38;5.90;99.90
43338;DHT22;28933;52.492;13.434;2023-02-01T17:06:06;5.90;99.90
43338;DHT22;28933;52.492;13.434;2023-02-01T17:08:35;5.80;99.90
43338;DHT22;28933;52.492;13.434;2023-02-01T17:11:03;5.80;99.90
43338;DHT22;28933;52.492;13.434;2023-02-01T17:13:30;5.80;99.90
43338;DHT22;28933;52.492;13.434;2023-02-01T17:18:24;5.80;99.90
43338;DHT22;28933;52.492;13.434;2023-02-01T17:20:56;5.80;99.90
43338;DHT22;28933;52.492;13.434;2023-02-01T17:23:22;5.80;99.90
43338;DHT22;28933;52.492;13.434;2023-02-01T17:25:47;5.80;99.90
43338;DHT22;28933;52.492;13.434;2023-02-01T17:28:13;5.80;99.90
43338;DHT22;28933;52.492;13.434;2023-02-01T17:30:39;5.80;99.90
43338;DHT22;28933;52.492;13.434;2023-02-01T17:35:40;5.80;99.90
43338;DHT22;28933;52.492;13.434;2023-02-01T17:38:10;5.80;99.90
43338;DHT22;28933;52.492;13.434;2023-02-01T17:40:36;5.90;99.90
43338;DHT22;28933;52.492;13.434;2023-02-01T17:43:02;5.80;99.90
43338;DHT22;28933;52.492;13.434;2023-02-01T17:45:35;5.90;99.90
43338;DHT22;28933;52.492;13.434;2023-02-01T17:48:06;5.90;99.90
43338;DHT22;28933;52.492;13.434;2023-02-01T17:50:34;5.90;99.90
43338;DHT22;28933;52.492;13.434;2023-02-01T17:53:01;5.90;99.90
43338;DHT22;28933;52.492;13.434;2023-02-01T17:55:27;5.90;99.90
43338;DHT22;28933;52.492;13.434;2023-02-01T17:57:53;6.00;99.90
43338;DHT22;28933;52.492;13.434;2023-02-01T18:00:19;6.00;99.90
43338;DHT22;28933;52.492;13.434;2023-02-01T18:02:46;6.00;99.90
43338;DHT22;28933;52.492;13.434;2023-02-01T18:05:22;6.00;99.90
43338;DHT22;28933;52.492;13.434;2023-02-01T18:07:48;6.10;99.90
43338;DHT22;28933;52.492;13.434;2023-02-01T18:10:14;6.10;99.90
43338;DHT22;28933;52.492;13.434;2023-02-01T18:12:40;6.10;99.90
43338;DHT22;28933;52.492;13.434;2023-02-01T18:15:21;6.10;99.90
43338;DHT22;28933;52.492;13.434;2023-02-01T18:17:48;6.00;99.90
43338;DHT22;28933;52.492;13.434;2023-02-01T18:20:18;6.00;99.90
43338;DHT22;28933;52.492;13.434;2023-02-01T18:22:45;6.10;99.90
43338;DHT22;28933;52.492;13.434;2023-02-01T18:25:26;6.10;99.90
43338;DHT22;28933;52.492;13.434;2023-02-01T18:27:53;6.20;99.90